Greenup, IL (62428)

11:55 PM CST on December 26, 2014 (GMT -0600)
Holsapple Farms | Change Station
CLOSE
Current Station
Personal Weather Station
Location: Toledo, IL
Elevation: 591 ft
Nearby Weather Stations

Elev 591 ft 39.22 °N, 88.22 °W | Updated 43 seconds ago

Mostly Cloudy
Mostly Cloudy
47.5 °F
Feels Like 48 °F
N
1.0
Wind Variable Wind from SW
Gusts 7.0 mph

Today
High -- | Low -- °F
--% Chance of Precip.
Yesterday
High -- | Low -- °F
Precip. -- in
7:10 AM 4:35 PM
Waxing Crescent, 33% visible
Pressure 30.07 in
Visibility 10.0 miles
Clouds Few 5000 ft
Mostly Cloudy 8000 ft
Windchill 48 °F
Dew Point 41 °F
Humidity 79%
Rainfall 0.00 in
Snow Depth Not available.
UV 0 out of 12
Pollen .10 out of 12
Air Quality Not available.
Flu Activity Not available.
METAR KMTO 270453Z AUTO 18011KT 10SM FEW050 BKN080 09/06 A3006 RMK AO2 SLP183 T00890056

More Conditions Fewer Conditions

Pressure 30.07 in
Visibility 10.0 miles
Clouds Few 5000 ft
Mostly Cloudy 8000 ft
Windchill 48 °F
Dew Point 41 °F
Humidity 79%
Rainfall 0.00 in
Snow Depth Not available.
UV 0 out of 12
Pollen .10 out of 12
Air Quality Not available.
Flu Activity Not available.
METAR KMTO 270453Z AUTO 18011KT 10SM FEW050 BKN080 09/06 A3006 RMK AO2 SLP183 T00890056

More Conditions Fewer Conditions

10-Day Weather Forecast

Almanac

Astronomy

Dec. 26, 2014 Rise Set
Actual Time
Civil Twilight
Nautical Twilight
Astronomical Twilight
Moon
Length of Visible Light
Length of Day
Tomorrow will be .
, % of the Moon is Illuminated

Today's Extremes

State Highs State Lows

Community

WunderPhotos

Upload Photos

1,780,850 photos uploaded!

WunderBlogs® & News

Nearby

Air Quality

  Air Quality AQ Index Pollutant
Not available.

Snow Depth

Station Depth Elevation

Earthquake Activity

City Distance Mag. Time & Date
Minimum magnitude displayed is 2.5.

Coastal Water Temperatures

Place Temperature

Nearby Weather Stations